createdAt,value
2022-08-30T00:00:05.677Z,4.5
2022-08-30T00:01:21.971Z,4.2
2022-08-30T00:02:38.248Z,4
2022-08-30T00:03:54.564Z,4.4
2022-08-30T00:05:10.836Z,4.2
2022-08-30T00:06:27.135Z,3.8
2022-08-30T00:07:43.429Z,4.2
2022-08-30T00:08:59.722Z,4.1
2022-08-30T00:10:16.008Z,4
2022-08-30T00:11:32.301Z,4
2022-08-30T00:12:48.597Z,3.7
2022-08-30T00:14:03.912Z,4.4
2022-08-30T00:15:20.207Z,3.6
2022-08-30T00:16:36.499Z,3.8
2022-08-30T00:17:52.783Z,4.1
2022-08-30T00:19:09.069Z,3.7
2022-08-30T00:20:25.381Z,3.6
2022-08-30T00:21:41.658Z,3.6
2022-08-30T00:22:57.952Z,3.5
2022-08-30T00:24:14.253Z,3.6
2022-08-30T00:25:30.549Z,3.7
2022-08-30T00:26:46.833Z,3.9
2022-08-30T00:28:03.125Z,3.6
2022-08-30T00:29:19.412Z,4
2022-08-30T00:30:34.723Z,3.6
2022-08-30T00:31:51.019Z,3.8
2022-08-30T00:33:07.310Z,3.6
2022-08-30T00:34:23.611Z,4.1
2022-08-30T00:35:39.899Z,4.2
2022-08-30T00:36:56.196Z,4
2022-08-30T00:38:12.493Z,4.1
2022-08-30T00:39:28.772Z,4.6
2022-08-30T00:40:45.073Z,4
2022-08-30T00:42:01.363Z,4.3
2022-08-30T00:43:17.661Z,4.3
2022-08-30T00:44:33.953Z,3.8
2022-08-30T00:45:50.246Z,3.7
2022-08-30T00:47:05.548Z,3.7
2022-08-30T00:48:21.838Z,3.9
2022-08-30T00:49:38.153Z,3.9
2022-08-30T00:50:54.437Z,3.5
2022-08-30T00:52:10.730Z,4
2022-08-30T00:53:27.012Z,3.9
2022-08-30T00:54:43.301Z,4
2022-08-30T00:55:59.592Z,4
2022-08-30T00:57:15.892Z,3.9
2022-08-30T00:58:32.175Z,3.7
2022-08-30T00:59:48.470Z,3.8
2022-08-30T01:01:04.768Z,4.2
2022-08-30T01:02:21.059Z,3.8
2022-08-30T01:03:36.360Z,3.8
2022-08-30T01:04:52.663Z,3.8
2022-08-30T01:06:08.955Z,3.8
2022-08-30T01:07:25.247Z,4
2022-08-30T01:08:41.538Z,3.6
2022-08-30T01:09:57.829Z,3.7
2022-08-30T01:11:14.119Z,3.7
2022-08-30T01:12:30.408Z,4.1
2022-08-30T01:13:46.710Z,4
2022-08-30T01:15:03.006Z,3.9
2022-08-30T01:16:19.284Z,4.1
2022-08-30T01:17:35.577Z,3.6
2022-08-30T01:18:51.883Z,3.9
2022-08-30T01:20:07.186Z,3.7
2022-08-30T01:21:23.492Z,4
2022-08-30T01:22:39.771Z,3.8
2022-08-30T01:23:56.076Z,4.1
2022-08-30T01:25:12.364Z,3.4
2022-08-30T01:26:28.648Z,4
2022-08-30T01:27:44.944Z,4.3
2022-08-30T01:29:01.236Z,4.4
2022-08-30T01:30:17.542Z,3.9
2022-08-30T01:31:33.822Z,3.9
2022-08-30T01:32:50.114Z,4.2
2022-08-30T01:34:06.408Z,3.9
2022-08-30T01:35:22.689Z,3.9
2022-08-30T01:36:38.005Z,4.1
2022-08-30T01:37:54.298Z,4.4
2022-08-30T01:39:10.587Z,4.5
2022-08-30T01:40:26.888Z,4
2022-08-30T01:41:43.183Z,4
2022-08-30T01:42:59.486Z,3.9
2022-08-30T01:44:15.773Z,4
2022-08-30T01:45:32.055Z,4.6
2022-08-30T01:46:48.338Z,4.1
2022-08-30T01:48:04.644Z,4.2
2022-08-30T01:49:20.930Z,4.7
2022-08-30T01:50:37.220Z,4.3
2022-08-30T01:51:53.516Z,4.2
2022-08-30T01:53:08.824Z,4.3
2022-08-30T01:54:25.125Z,4.4
2022-08-30T01:55:41.400Z,4.3
2022-08-30T01:56:57.712Z,4.3
2022-08-30T01:58:13.997Z,4.6
2022-08-30T01:59:30.279Z,4.3
2022-08-30T02:00:46.573Z,4.2
2022-08-30T02:02:02.862Z,4.2
2022-08-30T02:03:19.160Z,4.1
2022-08-30T02:04:35.452Z,4.4
2022-08-30T02:05:51.741Z,4.1
2022-08-30T02:07:08.052Z,4.5
2022-08-30T02:08:24.333Z,4.5
2022-08-30T02:09:39.647Z,5
2022-08-30T02:10:55.938Z,4.9
2022-08-30T02:12:12.222Z,4.7
2022-08-30T02:13:28.522Z,4.9
2022-08-30T02:14:44.811Z,4.8
2022-08-30T02:16:01.106Z,5
2022-08-30T02:17:17.404Z,5
2022-08-30T02:18:33.692Z,5.4
2022-08-30T02:19:49.982Z,5.1
2022-08-30T02:21:06.278Z,5.1
2022-08-30T02:22:22.565Z,5.5
2022-08-30T02:23:38.861Z,5.2
2022-08-30T02:24:55.152Z,4.9
2022-08-30T02:26:10.455Z,5.1
2022-08-30T02:27:26.744Z,5.3
2022-08-30T02:28:43.038Z,5
2022-08-30T02:29:59.344Z,5
2022-08-30T02:31:15.632Z,5.2
2022-08-30T02:32:31.931Z,5.2
2022-08-30T02:33:48.212Z,5.2
2022-08-30T02:35:04.513Z,5
2022-08-30T02:36:20.799Z,5.1
2022-08-30T02:37:37.090Z,5
2022-08-30T02:38:53.376Z,4.6
2022-08-30T02:40:09.670Z,4.7
2022-08-30T02:41:25.979Z,5.1
2022-08-30T02:42:41.276Z,5.4
2022-08-30T02:43:57.572Z,5.5
2022-08-30T02:45:13.864Z,5.5
2022-08-30T02:46:30.153Z,5.2
2022-08-30T02:47:46.454Z,5.9
2022-08-30T02:49:02.741Z,5.3
2022-08-30T02:50:19.037Z,5.3
2022-08-30T02:51:35.325Z,5.2
2022-08-30T02:52:51.610Z,5.4
2022-08-30T02:54:07.907Z,5
2022-08-30T02:55:24.199Z,4.8
2022-08-30T02:56:40.487Z,5.2
2022-08-30T02:57:56.796Z,5.4
2022-08-30T02:59:12.095Z,6.2
2022-08-30T03:00:28.397Z,6.2
2022-08-30T03:01:44.689Z,6.7
2022-08-30T03:03:00.964Z,8
2022-08-30T03:04:17.280Z,6.4
2022-08-30T03:05:33.558Z,7.3
2022-08-30T03:06:49.860Z,7.1
2022-08-30T03:08:06.137Z,6.9
2022-08-30T03:09:22.452Z,8.5
2022-08-30T03:10:38.731Z,13.2
2022-08-30T03:11:55.030Z,18.4
2022-08-30T03:13:11.322Z,14.8
2022-08-30T03:14:27.604Z,15.3
2022-08-30T03:15:42.913Z,12.5
2022-08-30T03:16:59.216Z,13.5
2022-08-30T03:18:15.496Z,15.9
2022-08-30T03:19:31.796Z,16.6
2022-08-30T03:20:48.093Z,14.7
2022-08-30T03:22:04.368Z,13.6
2022-08-30T03:23:19.684Z,14.6
2022-08-30T03:24:35.997Z,10.4
2022-08-30T03:25:52.273Z,8.8
2022-08-30T03:27:08.571Z,9.1
2022-08-30T03:28:24.849Z,11
2022-08-30T03:29:41.143Z,13.2
2022-08-30T03:30:57.434Z,12.8
2022-08-30T03:32:13.743Z,12
2022-08-30T03:33:30.033Z,11.5
2022-08-30T03:34:46.320Z,11.4
2022-08-30T03:36:02.617Z,12.3
2022-08-30T03:37:18.906Z,12.4
2022-08-30T03:38:35.208Z,13.7
2022-08-30T03:39:50.508Z,16.3
2022-08-30T03:41:06.790Z,17.4
2022-08-30T03:42:23.091Z,14.7
2022-08-30T03:43:39.376Z,14.5
2022-08-30T03:44:55.680Z,14.7
2022-08-30T03:46:11.972Z,15.1
2022-08-30T03:47:28.209Z,13.8
2022-08-30T03:48:44.491Z,13.7
2022-08-30T03:50:00.789Z,12.7
2022-08-30T03:51:17.040Z,14
2022-08-30T03:52:33.286Z,12.5
2022-08-30T03:53:49.563Z,12.7
2022-08-30T03:55:05.875Z,11.8
2022-08-30T03:56:21.138Z,12.2
2022-08-30T03:57:37.379Z,11.8
2022-08-30T03:58:53.664Z,11.6
2022-08-30T04:00:09.961Z,10.7
2022-08-30T04:01:26.216Z,9.4
2022-08-30T04:02:42.451Z,9.1
2022-08-30T04:03:58.683Z,9
2022-08-30T04:05:14.914Z,8.8
2022-08-30T04:06:31.164Z,7.5
2022-08-30T04:07:47.396Z,8.3
2022-08-30T04:09:03.643Z,8.7
2022-08-30T04:10:19.874Z,7.4
2022-08-30T04:11:36.106Z,7.2
2022-08-30T04:12:51.360Z,7.4
2022-08-30T04:14:07.604Z,6.7
2022-08-30T04:15:23.851Z,6.1
2022-08-30T04:16:40.080Z,6.7
2022-08-30T04:17:56.316Z,6.3
2022-08-30T04:19:12.567Z,6.7
2022-08-30T04:20:28.790Z,6.4
2022-08-30T04:21:45.044Z,6.6
2022-08-30T04:23:01.279Z,6.5
2022-08-30T04:24:17.522Z,7
2022-08-30T04:25:33.742Z,7.3
2022-08-30T04:26:49.991Z,7
2022-08-30T04:28:06.227Z,7.3
2022-08-30T04:29:21.494Z,7.5
2022-08-30T04:30:37.722Z,8
2022-08-30T04:31:53.963Z,7.3
2022-08-30T04:33:10.190Z,6.8
2022-08-30T04:34:26.448Z,6.8
2022-08-30T04:35:42.682Z,6.7
2022-08-30T04:36:58.915Z,6.4
2022-08-30T04:38:15.158Z,5.9
2022-08-30T04:39:31.396Z,5.5
2022-08-30T04:40:47.624Z,5.5
2022-08-30T04:42:03.877Z,5.9
2022-08-30T04:43:20.111Z,5.3
2022-08-30T04:44:36.355Z,5.3
2022-08-30T04:45:51.595Z,5.3
2022-08-30T04:47:07.840Z,5.9
2022-08-30T04:48:24.070Z,6.2
2022-08-30T04:49:40.320Z,5.7
2022-08-30T04:50:56.552Z,5.6
2022-08-30T04:52:12.793Z,5.1
2022-08-30T04:53:29.036Z,5.6
2022-08-30T04:54:45.264Z,5.8
2022-08-30T04:56:01.506Z,5.5
2022-08-30T04:57:17.736Z,5.4
2022-08-30T04:58:33.979Z,5.6
2022-08-30T04:59:50.223Z,5.1
2022-08-30T05:01:06.463Z,5
2022-08-30T05:02:21.708Z,4.8
2022-08-30T05:03:37.948Z,5.8
2022-08-30T05:04:54.201Z,4.9
2022-08-30T05:06:10.442Z,5
2022-08-30T05:07:26.664Z,4.9
2022-08-30T05:08:42.910Z,5
2022-08-30T05:09:59.148Z,5.4
2022-08-30T05:11:15.375Z,5.1
2022-08-30T05:12:31.629Z,5.2
2022-08-30T05:13:47.867Z,5.5
2022-08-30T05:15:04.091Z,5.7
2022-08-30T05:16:20.330Z,5.2
2022-08-30T05:17:36.588Z,5.1
2022-08-30T05:18:51.822Z,5.2
2022-08-30T05:20:08.079Z,5.4
2022-08-30T05:21:24.302Z,5.2
2022-08-30T05:22:40.544Z,5.2
2022-08-30T05:23:56.787Z,5.7
2022-08-30T05:25:13.019Z,4.9
2022-08-30T05:26:29.261Z,5.4
2022-08-30T05:27:45.499Z,5.4
2022-08-30T05:29:01.740Z,5.1
2022-08-30T05:30:17.987Z,5.4
2022-08-30T05:31:34.228Z,5.2
2022-08-30T05:32:50.462Z,5.1
2022-08-30T05:34:06.694Z,4.9
2022-08-30T05:35:21.944Z,5.3
2022-08-30T05:36:38.182Z,5.4
2022-08-30T05:37:54.417Z,5.3
2022-08-30T05:39:10.658Z,5
2022-08-30T05:40:26.892Z,4.8
2022-08-30T05:41:43.132Z,5.2
2022-08-30T05:42:59.380Z,5
2022-08-30T05:44:15.617Z,5.3
2022-08-30T05:45:31.850Z,6
2022-08-30T05:46:48.098Z,5.4
2022-08-30T05:48:04.339Z,5.3
2022-08-30T05:49:20.573Z,5.1
2022-08-30T05:50:36.815Z,5.3
2022-08-30T05:51:52.070Z,5.4
2022-08-30T05:53:08.308Z,5.4
2022-08-30T05:54:24.532Z,6
2022-08-30T05:55:40.786Z,5.7
2022-08-30T05:56:57.027Z,5.9
2022-08-30T05:58:13.258Z,4.8
2022-08-30T05:59:29.486Z,5.1
2022-08-30T06:00:45.728Z,5.4
2022-08-30T06:02:01.973Z,5.9
2022-08-30T06:03:18.213Z,5
2022-08-30T06:04:34.460Z,5.7
2022-08-30T06:05:50.680Z,5.7
2022-08-30T06:07:06.929Z,5.2
2022-08-30T06:08:22.170Z,5.6
2022-08-30T06:09:38.418Z,4.8
2022-08-30T06:10:54.655Z,5.8
2022-08-30T06:12:10.901Z,5
2022-08-30T06:13:27.138Z,5
2022-08-30T06:14:43.370Z,5.2
2022-08-30T06:15:59.617Z,5.2
2022-08-30T06:17:15.848Z,4.8
2022-08-30T06:18:32.098Z,5.3
2022-08-30T06:19:48.319Z,5.2
2022-08-30T06:21:04.567Z,5.4
2022-08-30T06:22:20.802Z,5.1
2022-08-30T06:23:37.048Z,5.3
2022-08-30T06:24:52.300Z,5.5
2022-08-30T06:26:08.524Z,5.4
2022-08-30T06:27:24.779Z,5
2022-08-30T06:28:41.015Z,5.5
2022-08-30T06:29:57.252Z,5.6
2022-08-30T06:31:13.492Z,5.2
2022-08-30T06:32:29.731Z,5.2
2022-08-30T06:33:45.955Z,5.6
2022-08-30T06:35:02.206Z,5.6
2022-08-30T06:36:18.445Z,5.4
2022-08-30T06:37:34.669Z,4.8
2022-08-30T06:38:50.914Z,5.2
2022-08-30T06:40:07.163Z,5.1
2022-08-30T06:41:23.389Z,5.5
2022-08-30T06:42:38.643Z,5.1
2022-08-30T06:43:54.884Z,5
2022-08-30T06:45:11.120Z,5.4
2022-08-30T06:46:27.365Z,5.1
2022-08-30T06:47:43.595Z,5.3
2022-08-30T06:48:59.843Z,5.4
2022-08-30T06:50:16.071Z,5.1
2022-08-30T06:51:32.325Z,5.2
2022-08-30T06:52:48.566Z,5.6
2022-08-30T06:54:04.786Z,5.2
2022-08-30T06:55:21.036Z,5
2022-08-30T06:56:37.267Z,4.7
2022-08-30T06:57:53.514Z,5.3
2022-08-30T06:59:08.768Z,5.1
2022-08-30T07:00:25.004Z,5.2
2022-08-30T07:01:41.243Z,5.5
2022-08-30T07:02:57.492Z,4.7
2022-08-30T07:04:13.711Z,5.7
2022-08-30T07:05:29.969Z,5.3
2022-08-30T07:06:46.204Z,5.7
2022-08-30T07:08:02.443Z,5.3
2022-08-30T07:09:18.668Z,5.1
2022-08-30T07:10:34.924Z,5.5
2022-08-30T07:11:51.154Z,5.3
2022-08-30T07:13:07.396Z,5.4
2022-08-30T07:14:23.634Z,5.7
2022-08-30T07:15:38.887Z,5.8
2022-08-30T07:16:55.124Z,4.8
2022-08-30T07:18:11.357Z,5.1
2022-08-30T07:19:27.605Z,4.6
2022-08-30T07:20:43.833Z,5.2
2022-08-30T07:22:00.075Z,5.1
2022-08-30T07:23:16.315Z,5.1
2022-08-30T07:24:32.548Z,5
2022-08-30T07:25:48.799Z,5
2022-08-30T07:27:05.034Z,5.4
2022-08-30T07:28:21.275Z,5.1
2022-08-30T07:29:37.507Z,5.6
2022-08-30T07:30:53.756Z,5.5
2022-08-30T07:32:09.009Z,5
2022-08-30T07:33:25.233Z,5.4
2022-08-30T07:34:41.481Z,6.3
2022-08-30T07:35:57.708Z,5.2
2022-08-30T07:37:13.967Z,5.9
2022-08-30T07:38:29.215Z,5.7
2022-08-30T07:39:45.444Z,5.8
2022-08-30T07:41:01.681Z,5.2
2022-08-30T07:42:17.923Z,5.3
2022-08-30T07:43:34.160Z,5.4
2022-08-30T07:44:50.409Z,5.7
2022-08-30T07:46:06.646Z,5.3
2022-08-30T07:47:22.890Z,5.1
2022-08-30T07:48:39.111Z,5.4
2022-08-30T07:49:55.364Z,5.4
2022-08-30T07:51:11.589Z,6.1
2022-08-30T07:52:27.832Z,5.5
2022-08-30T07:53:44.071Z,5.9
2022-08-30T07:54:59.333Z,5.6
2022-08-30T07:56:15.575Z,6.3
2022-08-30T07:57:31.806Z,5.4
2022-08-30T07:58:48.055Z,6
2022-08-30T08:00:04.286Z,5.6
2022-08-30T08:01:20.519Z,5.6
2022-08-30T08:02:36.758Z,5.1
2022-08-30T08:03:53.010Z,5.7
2022-08-30T08:05:09.240Z,5.2
2022-08-30T08:06:25.482Z,5.7
2022-08-30T08:07:41.733Z,4.9
2022-08-30T08:08:57.970Z,4.7
2022-08-30T08:10:14.193Z,5.1
2022-08-30T08:11:29.454Z,4.7
2022-08-30T08:12:45.683Z,5.1
2022-08-30T08:14:01.929Z,5.4
2022-08-30T08:15:18.168Z,5.5
2022-08-30T08:16:34.409Z,5.3
2022-08-30T08:17:50.641Z,5.3
2022-08-30T08:19:06.889Z,5.4
2022-08-30T08:20:23.132Z,5.2
2022-08-30T08:21:39.357Z,4.9
2022-08-30T08:22:55.603Z,5
2022-08-30T08:24:11.849Z,5.3
2022-08-30T08:25:28.081Z,5
2022-08-30T08:26:44.311Z,4.8
2022-08-30T08:27:59.571Z,4.4
2022-08-30T08:29:15.811Z,4.9
2022-08-30T08:30:32.051Z,4.5
2022-08-30T08:31:48.293Z,4.3
2022-08-30T08:33:04.518Z,4.6
2022-08-30T08:34:20.764Z,4.7
2022-08-30T08:35:37.003Z,4.7
2022-08-30T08:36:53.246Z,4.6
2022-08-30T08:38:09.485Z,4.6
2022-08-30T08:39:25.729Z,3.8
2022-08-30T08:40:41.968Z,4.4
2022-08-30T08:41:58.196Z,4.2
2022-08-30T08:43:14.441Z,4
2022-08-30T08:44:29.693Z,3.7
2022-08-30T08:45:45.934Z,3.6
2022-08-30T08:47:02.173Z,3.5
2022-08-30T08:48:18.406Z,3.5
2022-08-30T08:49:34.657Z,2.7
2022-08-30T08:50:50.885Z,2.9
2022-08-30T08:52:07.131Z,2.9
2022-08-30T08:53:23.364Z,2.7
2022-08-30T08:54:39.614Z,2.9
2022-08-30T08:55:55.854Z,2.9
2022-08-30T08:57:12.093Z,3.1
2022-08-30T08:58:28.319Z,3.3
2022-08-30T08:59:44.572Z,2.9
2022-08-30T09:00:59.823Z,2.7
2022-08-30T09:02:16.052Z,2.8
2022-08-30T09:03:32.297Z,2.8
2022-08-30T09:04:48.536Z,3.2
2022-08-30T09:06:04.783Z,2.7
2022-08-30T09:07:21.014Z,2.8
2022-08-30T09:08:37.256Z,2.8
2022-08-30T09:09:53.506Z,2.8
2022-08-30T09:11:09.722Z,2.5
2022-08-30T09:12:25.964Z,2.9
2022-08-30T09:13:42.200Z,2.8
2022-08-30T09:14:58.441Z,2.9
2022-08-30T09:16:14.684Z,2.9
2022-08-30T09:17:29.950Z,2.9
2022-08-30T09:18:46.189Z,2.8
2022-08-30T09:20:02.427Z,3.3
2022-08-30T09:21:18.669Z,2.9
2022-08-30T09:22:34.915Z,2.8
2022-08-30T09:23:51.136Z,3
2022-08-30T09:25:07.385Z,3.1
2022-08-30T09:26:23.622Z,2.9
2022-08-30T09:27:39.857Z,3.3
2022-08-30T09:28:56.099Z,3.3
2022-08-30T09:30:12.349Z,2.8
2022-08-30T09:31:28.583Z,3.1
2022-08-30T09:32:44.820Z,2.9
2022-08-30T09:34:00.092Z,2.9
2022-08-30T09:35:16.321Z,2.8
2022-08-30T09:36:32.571Z,3.2
2022-08-30T09:37:48.816Z,3.1
2022-08-30T09:39:05.043Z,3.4
2022-08-30T09:40:21.291Z,3.2
2022-08-30T09:41:37.525Z,3.1
2022-08-30T09:42:53.779Z,3
2022-08-30T09:44:09.996Z,3.1
2022-08-30T09:45:26.251Z,3.2
2022-08-30T09:46:42.476Z,3
2022-08-30T09:47:58.729Z,3.1
2022-08-30T09:49:14.975Z,2.9
2022-08-30T09:50:30.218Z,2.9
2022-08-30T09:53:02.699Z,2.7
2022-08-30T09:54:18.945Z,3
2022-08-30T09:55:35.184Z,3
2022-08-30T09:56:51.424Z,2.7
2022-08-30T09:58:07.656Z,3
2022-08-30T09:59:23.906Z,3.1
2022-08-30T10:00:40.147Z,2.8
2022-08-30T10:01:56.398Z,2.8
2022-08-30T10:03:12.628Z,3
2022-08-30T10:04:28.852Z,2.7
2022-08-30T10:05:45.093Z,3.1
2022-08-30T10:07:00.366Z,3.4
2022-08-30T10:08:16.600Z,3.4
2022-08-30T10:09:32.838Z,3.5
2022-08-30T10:10:49.074Z,2.8
2022-08-30T10:12:05.317Z,3.1
2022-08-30T10:13:21.558Z,3
2022-08-30T10:14:37.788Z,3.5
2022-08-30T10:15:54.022Z,3
2022-08-30T10:17:10.260Z,2.9
2022-08-30T10:18:26.517Z,2.9
2022-08-30T10:19:42.748Z,2.9
2022-08-30T10:20:58.981Z,3.1
2022-08-30T10:22:15.232Z,3
2022-08-30T10:23:30.497Z,3.1
2022-08-30T10:24:46.719Z,3.1
2022-08-30T10:26:02.968Z,3.3
2022-08-30T10:27:19.205Z,2.9
2022-08-30T10:28:35.427Z,3.4
2022-08-30T10:29:51.666Z,3.4
2022-08-30T10:31:07.904Z,2.9
2022-08-30T10:32:24.151Z,2.7
2022-08-30T10:33:40.394Z,2.5
2022-08-30T10:34:56.631Z,2.5
2022-08-30T10:36:12.868Z,2.3
2022-08-30T10:37:29.100Z,2.6
2022-08-30T10:38:45.343Z,2.6
2022-08-30T10:40:00.593Z,2.4
2022-08-30T10:41:16.823Z,2.6
2022-08-30T10:42:33.068Z,3
2022-08-30T10:43:49.317Z,2.3
2022-08-30T10:45:05.545Z,2.3
2022-08-30T10:46:21.787Z,2.7
2022-08-30T10:47:38.023Z,2.3
2022-08-30T10:48:54.281Z,2.7
2022-08-30T10:50:10.493Z,2.7
2022-08-30T10:51:26.745Z,2.6
2022-08-30T10:52:42.970Z,2.3
2022-08-30T10:53:59.220Z,2.5
2022-08-30T10:55:15.443Z,2.4
2022-08-30T10:56:30.707Z,2.2
2022-08-30T10:57:46.952Z,2.8
2022-08-30T10:59:03.184Z,2.3
2022-08-30T11:00:19.424Z,2.6
2022-08-30T11:01:35.666Z,2.5
2022-08-30T11:02:51.900Z,2.7
2022-08-30T11:04:08.142Z,2.3
2022-08-30T11:05:24.371Z,2.4
2022-08-30T11:06:40.605Z,2.3
2022-08-30T11:07:56.840Z,2.6
2022-08-30T11:09:13.086Z,2.4
2022-08-30T11:10:29.323Z,2.6
2022-08-30T11:11:45.556Z,2.5
2022-08-30T11:13:00.810Z,2.5
2022-08-30T11:14:17.047Z,2.9
2022-08-30T11:15:33.283Z,2.6
2022-08-30T11:16:49.554Z,3.3
2022-08-30T11:18:05.761Z,2.9
2022-08-30T11:19:22.017Z,2.8
2022-08-30T11:20:38.240Z,2.3
2022-08-30T11:21:54.484Z,2.7
2022-08-30T11:23:10.717Z,2.4
2022-08-30T11:24:26.956Z,2.3
2022-08-30T11:25:43.193Z,2.4
2022-08-30T11:26:59.438Z,2.4
2022-08-30T11:28:15.676Z,2.3
2022-08-30T11:29:30.925Z,2.6
2022-08-30T11:30:47.160Z,2.1
2022-08-30T11:32:03.412Z,2.8
2022-08-30T11:33:19.639Z,2.4
2022-08-30T11:34:35.888Z,2
2022-08-30T11:35:52.110Z,2.3
2022-08-30T11:37:08.363Z,2.6
2022-08-30T11:38:24.603Z,2.4
2022-08-30T11:39:40.844Z,2.2
2022-08-30T11:40:57.080Z,2.1
2022-08-30T11:42:13.300Z,2.1
2022-08-30T11:43:29.552Z,2.2
2022-08-30T11:44:45.795Z,2.3
2022-08-30T11:46:01.037Z,2.2
2022-08-30T11:47:17.282Z,2.5
2022-08-30T11:48:33.523Z,2.3
2022-08-30T11:49:49.756Z,2
2022-08-30T11:51:05.987Z,1.9
2022-08-30T11:52:22.240Z,2.3
2022-08-30T11:53:37.489Z,2
2022-08-30T11:54:53.740Z,2.3
2022-08-30T11:56:09.961Z,2.2
2022-08-30T11:57:26.224Z,2.1
2022-08-30T11:58:42.446Z,2.3
2022-08-30T11:59:58.670Z,2.4
2022-08-30T12:01:14.909Z,2.4
2022-08-30T12:02:31.155Z,2.1
2022-08-30T12:03:47.404Z,2.4
2022-08-30T12:05:03.636Z,2.1
2022-08-30T12:06:19.874Z,2.8
2022-08-30T12:07:36.102Z,3.2
2022-08-30T12:08:52.342Z,2.7
2022-08-30T12:10:07.599Z,3
2022-08-30T12:11:23.865Z,3.3
2022-08-30T12:13:56.306Z,3
2022-08-30T12:15:12.561Z,2.6
2022-08-30T12:16:28.784Z,3
2022-08-30T12:17:45.036Z,3.1
2022-08-30T12:19:01.261Z,3.3
2022-08-30T12:20:17.519Z,3.3
2022-08-30T12:21:33.749Z,2.6
2022-08-30T12:22:50.007Z,3
2022-08-30T12:24:06.222Z,3.3
2022-08-30T12:25:22.470Z,2.8
2022-08-30T12:26:37.710Z,3.4
2022-08-30T12:27:53.958Z,3.4
2022-08-30T12:29:10.201Z,3.5
2022-08-30T12:30:26.446Z,3.6
2022-08-30T12:31:42.666Z,3.5
2022-08-30T12:32:58.911Z,3.3
2022-08-30T12:34:15.152Z,3.3
2022-08-30T12:35:31.389Z,3.2
2022-08-30T12:36:47.625Z,3.4
2022-08-30T12:38:03.868Z,3.6
2022-08-30T12:39:20.085Z,3.1
2022-08-30T12:40:36.336Z,3.2
2022-08-30T12:41:52.564Z,3.6
2022-08-30T12:43:07.823Z,3.5
2022-08-30T12:44:24.069Z,3.2
2022-08-30T12:45:40.297Z,3.6
2022-08-30T12:46:56.541Z,3.8
2022-08-30T12:48:12.786Z,3.7
2022-08-30T12:49:29.035Z,3.5
2022-08-30T12:50:45.271Z,3.2
2022-08-30T12:52:01.503Z,3.5
2022-08-30T12:53:17.742Z,3.9
2022-08-30T12:54:33.962Z,3.8
2022-08-30T12:55:50.220Z,3.4
2022-08-30T12:57:06.444Z,3.5
2022-08-30T12:58:22.695Z,3.6
2022-08-30T12:59:37.937Z,3.5
2022-08-30T13:00:54.174Z,4
2022-08-30T13:02:10.406Z,3.6
2022-08-30T13:03:26.670Z,3.5
2022-08-30T13:04:42.900Z,3.5
2022-08-30T13:05:59.120Z,3.6
2022-08-30T13:07:15.382Z,3.7
2022-08-30T13:08:31.620Z,3.4
2022-08-30T13:09:47.843Z,3.6
2022-08-30T13:11:04.082Z,3.9
2022-08-30T13:12:20.329Z,3.8
2022-08-30T13:13:36.567Z,3.9
2022-08-30T13:14:52.792Z,3.4
2022-08-30T13:16:08.057Z,3.4
2022-08-30T13:17:24.293Z,3.9
2022-08-30T13:18:40.524Z,3.4
2022-08-30T13:19:56.767Z,3.6
2022-08-30T13:21:13.008Z,3.4
2022-08-30T13:22:29.239Z,3
2022-08-30T13:23:45.477Z,3.2
2022-08-30T13:25:01.723Z,3.1
2022-08-30T13:26:17.952Z,3.2
2022-08-30T13:27:34.194Z,3.2
2022-08-30T13:28:50.434Z,2.9
2022-08-30T13:30:06.674Z,3.1
2022-08-30T13:31:22.905Z,2.9
2022-08-30T13:32:38.168Z,3
2022-08-30T13:33:54.409Z,3
2022-08-30T13:35:10.662Z,3
2022-08-30T13:36:26.882Z,2.8
2022-08-30T13:37:43.118Z,3.3
2022-08-30T13:38:59.376Z,2.9
2022-08-30T13:40:15.604Z,3.2
2022-08-30T13:41:31.857Z,3.7
2022-08-30T13:42:48.075Z,3
2022-08-30T13:44:04.316Z,3
2022-08-30T13:45:20.555Z,3.5
2022-08-30T13:46:36.797Z,3.4
2022-08-30T13:47:53.024Z,3.3
2022-08-30T13:49:08.279Z,3.3
2022-08-30T13:50:24.522Z,3.5
2022-08-30T13:51:40.762Z,3.4
2022-08-30T13:52:57.006Z,3.6
2022-08-30T13:54:13.252Z,3.5
2022-08-30T13:55:29.489Z,3.2
2022-08-30T13:56:45.726Z,3.4
2022-08-30T13:58:01.975Z,3.2
2022-08-30T13:59:18.199Z,3.2
2022-08-30T14:00:34.431Z,3.5
2022-08-30T14:01:50.671Z,3.8
2022-08-30T14:03:06.908Z,3.4
2022-08-30T14:04:23.162Z,3.4
2022-08-30T14:05:38.437Z,3.1
2022-08-30T14:06:54.649Z,3.2
2022-08-30T14:08:10.886Z,3.1
2022-08-30T14:09:27.132Z,3.3
2022-08-30T14:10:43.368Z,3.1
2022-08-30T14:11:59.593Z,3.1
2022-08-30T14:13:15.833Z,3.1
2022-08-30T14:14:32.072Z,3.3
2022-08-30T14:15:48.312Z,3.2
2022-08-30T14:17:04.568Z,3.2
2022-08-30T14:18:20.795Z,3.2
2022-08-30T14:19:37.032Z,3.1
2022-08-30T14:20:53.266Z,3
2022-08-30T14:22:08.545Z,3
2022-08-30T14:23:24.774Z,3.1
2022-08-30T14:24:41.014Z,3.2
2022-08-30T14:25:57.254Z,3.1
2022-08-30T14:27:13.512Z,3
2022-08-30T14:28:29.727Z,2.8
2022-08-30T14:29:45.981Z,3.3
2022-08-30T14:31:02.197Z,2.8
2022-08-30T14:32:18.435Z,2.9
2022-08-30T14:33:34.665Z,3.2
2022-08-30T14:34:50.907Z,2.6
2022-08-30T14:36:07.151Z,3.1
2022-08-30T14:37:23.394Z,2.9
2022-08-30T14:38:38.642Z,2.8
2022-08-30T14:39:54.879Z,3.4
2022-08-30T14:41:11.120Z,2.9
2022-08-30T14:42:27.358Z,3
2022-08-30T14:43:43.610Z,2.9
2022-08-30T14:44:59.836Z,3.2
2022-08-30T14:46:16.086Z,3.1
2022-08-30T14:47:32.331Z,2.9
2022-08-30T14:48:48.547Z,2.8
2022-08-30T14:50:04.797Z,3
2022-08-30T14:51:21.034Z,3.2
2022-08-30T14:52:37.289Z,3.2
2022-08-30T14:53:53.525Z,3
2022-08-30T14:55:08.761Z,2.7
2022-08-30T14:56:25.014Z,3.1
2022-08-30T14:57:41.239Z,2.8
2022-08-30T14:58:57.471Z,2.9
2022-08-30T15:00:13.738Z,3.1
2022-08-30T15:01:29.952Z,3
2022-08-30T15:02:46.197Z,2.7
2022-08-30T15:04:02.429Z,3
2022-08-30T15:05:18.671Z,2.6
2022-08-30T15:06:34.902Z,2.7
2022-08-30T15:07:51.141Z,2.8
2022-08-30T15:10:23.622Z,2.9
2022-08-30T15:11:38.887Z,2.4
2022-08-30T15:12:55.134Z,2.8
2022-08-30T15:14:11.352Z,2.8
2022-08-30T15:15:27.595Z,2.8
2022-08-30T15:16:43.822Z,3.1
2022-08-30T15:18:00.099Z,2.8
2022-08-30T15:19:16.305Z,3.2
2022-08-30T15:20:32.575Z,3.3
2022-08-30T15:21:48.792Z,3.4
2022-08-30T15:23:05.031Z,2.9
2022-08-30T15:24:21.264Z,2.7
2022-08-30T15:25:37.514Z,2.7
2022-08-30T15:26:53.732Z,3.1
2022-08-30T15:28:09.012Z,3.1
2022-08-30T15:29:25.238Z,2.9
2022-08-30T15:30:41.467Z,2.7
2022-08-30T15:31:57.698Z,2.6
2022-08-30T15:33:13.941Z,2.6
2022-08-30T15:34:30.177Z,2.3
2022-08-30T15:35:46.441Z,2.8
2022-08-30T15:37:02.656Z,2.5
2022-08-30T15:38:18.902Z,2.2
2022-08-30T15:39:35.143Z,2.7
2022-08-30T15:40:51.368Z,2.8
2022-08-30T15:42:07.607Z,2.7
2022-08-30T15:43:23.849Z,2.6
2022-08-30T15:44:39.103Z,2.5
2022-08-30T15:45:55.344Z,2.7
2022-08-30T15:47:11.578Z,2.6
2022-08-30T15:48:27.824Z,2.8
2022-08-30T15:49:44.000Z,2.7
2022-08-30T15:51:00.316Z,3
2022-08-30T15:52:16.524Z,2.8
2022-08-30T15:53:32.792Z,2.5
2022-08-30T15:54:49.001Z,2.5
2022-08-30T15:56:05.238Z,2.8
2022-08-30T15:57:21.493Z,2.5
2022-08-30T15:58:37.737Z,2.6
2022-08-30T15:59:53.965Z,2.7
2022-08-30T16:01:09.238Z,2.7
2022-08-30T16:02:25.462Z,2.7
2022-08-30T16:03:41.681Z,2.4
2022-08-30T16:04:57.926Z,2.6
2022-08-30T16:06:14.159Z,2.8
2022-08-30T16:07:30.433Z,2.6
2022-08-30T16:08:45.673Z,2.6
2022-08-30T16:10:01.912Z,2.8
2022-08-30T16:11:18.148Z,2.7
2022-08-30T16:12:34.374Z,2.7
2022-08-30T16:13:50.616Z,2.7
2022-08-30T16:15:06.883Z,2.5
2022-08-30T16:16:23.089Z,2.7
2022-08-30T16:17:39.324Z,2.4
2022-08-30T16:18:55.589Z,2.6
2022-08-30T16:20:11.801Z,2.6
2022-08-30T16:21:28.044Z,2.3
2022-08-30T16:22:44.291Z,2.1
2022-08-30T16:24:00.515Z,2.2
2022-08-30T16:25:15.783Z,2.2
2022-08-30T16:26:32.006Z,2.2
2022-08-30T16:27:48.261Z,2.1
2022-08-30T16:29:04.485Z,2.1
2022-08-30T16:30:20.725Z,2.1
2022-08-30T16:31:36.961Z,2.2
2022-08-30T16:32:53.208Z,2
2022-08-30T16:34:09.448Z,1.9
2022-08-30T16:35:25.680Z,2.3
2022-08-30T16:36:41.947Z,2.1
2022-08-30T16:37:58.152Z,2.1
2022-08-30T16:39:14.393Z,2.1
2022-08-30T16:40:30.638Z,2.1
2022-08-30T16:41:45.893Z,1.9
2022-08-30T16:43:02.121Z,2
2022-08-30T16:44:18.379Z,2
2022-08-30T16:45:34.591Z,2.1
2022-08-30T16:46:50.843Z,2
2022-08-30T16:48:07.080Z,2.1
2022-08-30T16:49:23.323Z,1.9
2022-08-30T16:50:39.559Z,2
2022-08-30T16:51:55.801Z,2.1
2022-08-30T16:53:12.022Z,2.1
2022-08-30T16:54:28.269Z,2
2022-08-30T16:55:44.500Z,2
2022-08-30T16:57:00.744Z,1.9
2022-08-30T16:58:15.996Z,2.1
2022-08-30T16:59:32.234Z,2.1
2022-08-30T17:00:48.489Z,2.1
2022-08-30T17:02:04.728Z,2
2022-08-30T17:03:20.966Z,2
2022-08-30T17:04:37.190Z,2
2022-08-30T17:05:53.439Z,2.7
2022-08-30T17:07:09.694Z,2.1
2022-08-30T17:08:25.913Z,2.1
2022-08-30T17:09:42.149Z,2.1
2022-08-30T17:10:58.382Z,2.2
2022-08-30T17:12:14.617Z,2.2
2022-08-30T17:13:30.873Z,2
2022-08-30T17:14:46.122Z,1.9
2022-08-30T17:16:02.358Z,2
2022-08-30T17:17:18.587Z,2
2022-08-30T17:18:34.836Z,1.6
2022-08-30T17:19:51.067Z,2.2
2022-08-30T17:21:07.319Z,2.2
2022-08-30T17:22:23.547Z,2.1
2022-08-30T17:23:39.786Z,2.2
2022-08-30T17:24:56.031Z,1.8
2022-08-30T17:26:12.268Z,2.1
2022-08-30T17:27:28.491Z,2.5
2022-08-30T17:28:44.747Z,2.1
2022-08-30T17:30:00.972Z,2.1
2022-08-30T17:31:16.233Z,2.2
2022-08-30T17:32:32.477Z,2.3
2022-08-30T17:33:48.706Z,2.3
2022-08-30T17:35:04.937Z,2.4
2022-08-30T17:36:21.184Z,2.3
2022-08-30T17:37:37.423Z,2
2022-08-30T17:38:53.658Z,2.3